createdAt,value
2017-12-13T00:00:21.192Z,99.90
2017-12-13T00:02:47.854Z,99.90
2017-12-13T00:05:14.541Z,99.90
2017-12-13T00:07:41.219Z,99.90
2017-12-13T00:10:07.887Z,99.90
2017-12-13T00:12:34.943Z,99.90
2017-12-13T00:15:02.395Z,99.90
2017-12-13T00:17:29.136Z,99.90
2017-12-13T00:19:55.798Z,99.90
2017-12-13T00:22:31.456Z,99.90
2017-12-13T00:24:59.028Z,99.90
2017-12-13T00:27:25.710Z,99.90
2017-12-13T00:29:52.364Z,99.90
2017-12-13T00:32:19.043Z,99.90
2017-12-13T00:34:46.445Z,99.90
2017-12-13T00:37:13.261Z,99.90
2017-12-13T00:39:40.658Z,99.90
2017-12-13T00:42:07.422Z,99.90
2017-12-13T00:44:34.078Z,99.90
2017-12-13T00:47:00.754Z,99.90
2017-12-13T00:49:27.543Z,99.90
2017-12-13T00:51:54.199Z,99.90
2017-12-13T00:54:21.057Z,99.90
2017-12-13T00:56:47.757Z,99.90
2017-12-13T00:59:14.429Z,99.90
2017-12-13T01:01:41.140Z,99.90
2017-12-13T01:04:07.820Z,99.90
2017-12-13T01:06:34.499Z,99.90
2017-12-13T01:09:01.172Z,99.90
2017-12-13T01:11:27.814Z,99.90
2017-12-13T01:13:54.476Z,99.90
2017-12-13T01:16:21.159Z,99.90
2017-12-13T01:18:48.555Z,99.90
2017-12-13T01:21:15.253Z,99.90
2017-12-13T01:23:42.694Z,99.90
2017-12-13T01:26:09.326Z,99.90
2017-12-13T01:28:35.997Z,99.90
2017-12-13T01:31:03.401Z,99.90
2017-12-13T01:33:30.045Z,99.90
2017-12-13T01:35:58.786Z,99.90
2017-12-13T01:38:25.465Z,99.90
2017-12-13T01:40:52.121Z,99.90
2017-12-13T01:43:18.841Z,99.90
2017-12-13T01:45:45.486Z,99.90
2017-12-13T01:48:12.169Z,99.90
2017-12-13T01:50:38.923Z,99.90
2017-12-13T01:53:06.317Z,99.90
2017-12-13T01:55:33.786Z,99.90
2017-12-13T01:58:00.496Z,99.90
2017-12-13T02:00:27.137Z,99.90
2017-12-13T02:02:53.812Z,99.90
2017-12-13T02:05:21.234Z,99.90
2017-12-13T02:07:47.910Z,99.90
2017-12-13T02:10:15.357Z,99.90
2017-12-13T02:12:42.793Z,99.90
2017-12-13T02:15:09.462Z,99.90
2017-12-13T02:17:36.898Z,99.90
2017-12-13T02:20:03.622Z,99.90
2017-12-13T02:22:30.363Z,99.90
2017-12-13T02:24:57.135Z,99.90
2017-12-13T02:27:23.772Z,99.90
2017-12-13T02:29:50.435Z,99.90
2017-12-13T02:32:17.095Z,99.90
2017-12-13T02:34:44.506Z,99.90
2017-12-13T02:37:11.159Z,99.90
2017-12-13T02:39:37.797Z,99.90
2017-12-13T02:42:04.461Z,99.90
2017-12-13T02:44:31.142Z,99.90
2017-12-13T02:46:57.821Z,99.90
2017-12-13T02:49:24.474Z,99.90
2017-12-13T02:51:51.137Z,99.90
2017-12-13T02:54:17.851Z,99.90
2017-12-13T02:56:44.589Z,99.90
2017-12-13T02:59:11.314Z,99.90
2017-12-13T03:01:38.017Z,99.90
2017-12-13T03:04:05.428Z,99.90
2017-12-13T03:06:32.140Z,99.90
2017-12-13T03:08:59.602Z,99.90
2017-12-13T03:11:26.265Z,99.90
2017-12-13T03:13:52.935Z,99.90
2017-12-13T03:16:19.618Z,99.90
2017-12-13T03:18:47.040Z,99.90
2017-12-13T03:21:13.701Z,99.90
2017-12-13T03:23:40.408Z,99.90
2017-12-13T03:26:07.035Z,99.90
2017-12-13T03:28:33.721Z,99.90
2017-12-13T03:31:00.421Z,99.90
2017-12-13T03:33:27.068Z,99.90
2017-12-13T03:35:53.729Z,99.90
2017-12-13T03:38:20.394Z,99.90
2017-12-13T03:40:47.034Z,99.90
2017-12-13T03:43:13.744Z,99.90
2017-12-13T03:45:40.434Z,99.90
2017-12-13T03:48:07.075Z,99.90
2017-12-13T03:50:33.743Z,99.90
2017-12-13T03:53:00.398Z,99.90
2017-12-13T03:55:27.081Z,99.90
2017-12-13T03:57:53.741Z,99.90
2017-12-13T04:00:20.427Z,99.90
2017-12-13T04:02:47.107Z,99.90
2017-12-13T04:05:13.866Z,99.90
2017-12-13T04:07:40.529Z,99.90
2017-12-13T04:10:07.941Z,99.90
2017-12-13T04:12:34.605Z,99.90
2017-12-13T04:15:01.288Z,99.90
2017-12-13T04:17:28.702Z,99.90
2017-12-13T04:19:55.329Z,99.90
2017-12-13T04:22:22.011Z,99.90
2017-12-13T04:24:48.637Z,99.90
2017-12-13T04:27:15.301Z,99.90
2017-12-13T04:29:42.696Z,99.90
2017-12-13T04:32:09.330Z,99.90
2017-12-13T04:34:35.994Z,99.90
2017-12-13T04:37:02.662Z,99.90
2017-12-13T04:39:29.316Z,99.90
2017-12-13T04:41:55.988Z,99.90
2017-12-13T04:44:23.415Z,99.90
2017-12-13T04:46:50.103Z,99.90
2017-12-13T04:49:16.762Z,99.90
2017-12-13T04:51:43.429Z,99.90
2017-12-13T04:54:10.081Z,99.90
2017-12-13T04:56:36.727Z,99.90
2017-12-13T04:59:03.397Z,99.90
2017-12-13T05:01:30.846Z,99.90
2017-12-13T05:03:58.229Z,99.90
2017-12-13T05:06:24.897Z,99.90
2017-12-13T05:08:51.549Z,99.90
2017-12-13T05:11:19.006Z,99.90
2017-12-13T05:13:45.705Z,99.90
2017-12-13T05:16:13.125Z,99.90
2017-12-13T05:18:39.767Z,99.90
2017-12-13T05:21:06.478Z,99.90
2017-12-13T05:23:33.142Z,99.90
2017-12-13T05:25:59.826Z,99.90
2017-12-13T05:28:27.212Z,99.90
2017-12-13T05:30:53.875Z,99.90
2017-12-13T05:33:20.571Z,99.90
2017-12-13T05:35:47.970Z,99.90
2017-12-13T05:38:14.642Z,99.90
2017-12-13T05:40:41.313Z,99.90
2017-12-13T05:43:08.740Z,99.90
2017-12-13T05:45:35.616Z,99.90
2017-12-13T05:48:02.315Z,99.90
2017-12-13T05:50:28.998Z,99.90
2017-12-13T05:52:55.669Z,99.90
2017-12-13T05:55:23.038Z,99.90
2017-12-13T05:57:49.691Z,99.90
2017-12-13T06:00:16.416Z,99.90
2017-12-13T06:02:43.822Z,99.90
2017-12-13T06:05:10.474Z,99.90
2017-12-13T06:07:37.138Z,99.90
2017-12-13T06:10:03.852Z,99.90
2017-12-13T06:12:30.503Z,99.90
2017-12-13T06:14:57.192Z,99.90
2017-12-13T06:17:23.833Z,99.90
2017-12-13T06:19:50.480Z,99.90
2017-12-13T06:22:17.160Z,99.90
2017-12-13T06:24:43.850Z,99.90
2017-12-13T06:27:11.269Z,99.90
2017-12-13T06:29:37.956Z,99.90
2017-12-13T06:32:05.337Z,99.90
2017-12-13T06:34:32.031Z,99.90
2017-12-13T06:36:58.774Z,99.90
2017-12-13T06:39:25.679Z,99.90
2017-12-13T06:41:53.075Z,99.90
2017-12-13T06:44:19.766Z,99.90
2017-12-13T06:46:46.506Z,99.90
2017-12-13T06:49:13.128Z,99.90
2017-12-13T06:51:40.533Z,99.90
2017-12-13T06:54:07.189Z,99.90
2017-12-13T06:56:34.307Z,99.90
2017-12-13T06:59:00.981Z,99.90
2017-12-13T07:01:27.643Z,99.90
2017-12-13T07:03:54.334Z,99.90
2017-12-13T07:06:20.987Z,99.90
2017-12-13T07:08:47.651Z,99.90
2017-12-13T07:11:14.296Z,99.90
2017-12-13T07:13:40.973Z,99.90
2017-12-13T07:16:07.689Z,99.90
2017-12-13T07:18:34.330Z,99.90
2017-12-13T07:21:01.000Z,99.90
2017-12-13T07:23:27.759Z,99.90
2017-12-13T07:25:55.146Z,99.90
2017-12-13T07:28:21.875Z,99.90
2017-12-13T07:30:49.324Z,99.90
2017-12-13T07:33:16.737Z,99.90
2017-12-13T07:35:43.409Z,99.90
2017-12-13T07:38:10.058Z,99.90
2017-12-13T07:40:36.710Z,99.90
2017-12-13T07:43:04.116Z,99.90
2017-12-13T07:45:30.810Z,99.90
2017-12-13T07:47:58.193Z,99.90
2017-12-13T07:50:24.881Z,99.90
2017-12-13T07:52:51.522Z,99.90
2017-12-13T07:55:18.196Z,99.90
2017-12-13T07:57:45.620Z,99.90
2017-12-13T08:00:12.334Z,99.90
2017-12-13T08:02:38.976Z,99.90
2017-12-13T08:05:05.659Z,99.90
2017-12-13T08:07:32.297Z,99.90
2017-12-13T08:09:58.961Z,99.90
2017-12-13T08:12:25.620Z,99.90
2017-12-13T08:14:52.999Z,99.90
2017-12-13T08:17:19.682Z,99.90
2017-12-13T08:19:46.412Z,99.90
2017-12-13T08:22:13.085Z,99.90
2017-12-13T08:24:39.735Z,99.90
2017-12-13T08:27:06.401Z,99.90
2017-12-13T08:29:33.071Z,99.90
2017-12-13T08:31:59.754Z,99.90
2017-12-13T08:34:26.415Z,99.90
2017-12-13T08:36:53.838Z,99.90
2017-12-13T08:39:21.231Z,99.90
2017-12-13T08:41:48.650Z,99.90
2017-12-13T08:44:15.342Z,99.90
2017-12-13T08:46:42.807Z,99.90
2017-12-13T08:49:10.221Z,99.90
2017-12-13T08:51:36.941Z,99.90
2017-12-13T08:54:03.639Z,99.90
2017-12-13T08:56:31.037Z,99.90
2017-12-13T08:58:57.734Z,99.90
2017-12-13T09:01:24.406Z,99.80
2017-12-13T09:03:51.091Z,99.80
2017-12-13T09:06:17.817Z,99.60
2017-12-13T09:08:44.495Z,99.20
2017-12-13T09:11:11.174Z,99.30
2017-12-13T09:13:37.874Z,99.60
2017-12-13T09:16:04.592Z,99.70
2017-12-13T09:18:31.268Z,99.80
2017-12-13T09:20:57.942Z,99.70
2017-12-13T09:23:25.337Z,99.40
2017-12-13T09:25:52.090Z,99.40
2017-12-13T09:28:18.788Z,99.40
2017-12-13T09:30:46.207Z,99.50
2017-12-13T09:33:12.880Z,99.60
2017-12-13T09:35:40.318Z,99.90
2017-12-13T09:38:07.009Z,99.90
2017-12-13T09:40:34.577Z,99.50
2017-12-13T09:43:01.255Z,98.90
2017-12-13T09:45:28.739Z,98.80
2017-12-13T09:47:55.409Z,98.80
2017-12-13T09:50:22.057Z,97.60
2017-12-13T09:52:48.774Z,98.70
2017-12-13T09:55:15.433Z,99.30
2017-12-13T09:57:42.905Z,99.10
2017-12-13T10:00:09.667Z,99.10
2017-12-13T10:02:36.306Z,98.80
2017-12-13T10:05:03.006Z,98.40
2017-12-13T10:07:30.453Z,98.00
2017-12-13T10:09:57.152Z,98.00
2017-12-13T10:12:23.859Z,97.20
2017-12-13T10:14:50.560Z,96.80
2017-12-13T10:17:17.219Z,96.90
2017-12-13T10:19:43.906Z,97.20
2017-12-13T10:22:11.312Z,97.60
2017-12-13T10:24:37.975Z,97.60
2017-12-13T10:27:04.641Z,97.00
2017-12-13T10:29:32.072Z,98.40
2017-12-13T10:31:58.728Z,98.40
2017-12-13T10:34:25.371Z,98.30
2017-12-13T10:36:52.072Z,98.10
2017-12-13T10:39:18.731Z,98.20
2017-12-13T10:41:45.385Z,97.50
2017-12-13T10:44:12.075Z,97.50
2017-12-13T10:46:38.753Z,95.90
2017-12-13T10:49:05.455Z,94.40
2017-12-13T10:51:32.155Z,93.00
2017-12-13T10:53:58.850Z,90.00
2017-12-13T10:56:25.557Z,89.00
2017-12-13T10:58:52.331Z,83.40
2017-12-13T11:01:19.049Z,84.70
2017-12-13T11:03:46.511Z,86.50
2017-12-13T11:06:13.246Z,85.70
2017-12-13T11:08:39.899Z,84.10
2017-12-13T11:11:07.335Z,88.90
2017-12-13T11:13:34.033Z,88.20
2017-12-13T11:16:00.730Z,88.80
2017-12-13T11:18:27.479Z,88.70
2017-12-13T11:20:54.223Z,89.70
2017-12-13T11:23:20.942Z,90.30
2017-12-13T11:25:47.641Z,90.90
2017-12-13T11:28:14.424Z,90.90
2017-12-13T11:30:42.209Z,91.30
2017-12-13T11:33:08.894Z,91.70
2017-12-13T11:35:35.627Z,92.60
2017-12-13T11:38:03.045Z,92.40
2017-12-13T11:40:29.721Z,92.40
2017-12-13T11:42:57.000Z,92.00
2017-12-13T11:45:24.422Z,92.10
2017-12-13T11:47:51.345Z,92.20
2017-12-13T11:50:18.032Z,93.50
2017-12-13T11:52:44.724Z,93.40
2017-12-13T11:55:11.402Z,93.10
2017-12-13T11:57:38.099Z,92.20
2017-12-13T12:00:04.879Z,92.30
2017-12-13T12:02:31.569Z,92.10
2017-12-13T12:04:58.248Z,92.20
2017-12-13T12:07:24.937Z,92.00
2017-12-13T12:09:51.652Z,91.80
2017-12-13T12:12:18.330Z,90.70
2017-12-13T12:14:45.727Z,91.20
2017-12-13T12:17:12.442Z,91.20
2017-12-13T12:19:39.177Z,91.10
2017-12-13T12:22:06.598Z,90.50
2017-12-13T12:24:34.902Z,90.00
2017-12-13T12:27:01.586Z,89.80
2017-12-13T12:29:28.280Z,87.70
2017-12-13T12:31:54.978Z,91.10
2017-12-13T12:34:21.691Z,87.00
2017-12-13T12:36:49.095Z,85.90
2017-12-13T12:39:15.790Z,85.90
2017-12-13T12:41:43.198Z,87.10
2017-12-13T12:44:09.841Z,87.10
2017-12-13T12:46:36.549Z,87.70
2017-12-13T12:49:03.957Z,87.10
2017-12-13T12:51:30.608Z,87.00
2017-12-13T12:53:57.285Z,83.50
2017-12-13T12:56:24.689Z,82.90
2017-12-13T12:58:51.343Z,82.80
2017-12-13T13:01:18.033Z,83.90
2017-12-13T13:03:45.428Z,85.10
2017-12-13T13:06:12.089Z,85.10
2017-12-13T13:08:38.820Z,86.30
2017-12-13T13:11:06.167Z,84.30
2017-12-13T13:13:32.841Z,84.20
2017-12-13T13:15:59.557Z,84.40
2017-12-13T13:18:26.308Z,85.60
2017-12-13T13:20:53.085Z,86.60
2017-12-13T13:23:19.774Z,88.80
2017-12-13T13:25:46.477Z,89.10
2017-12-13T13:28:13.205Z,88.70
2017-12-13T13:30:39.881Z,89.40
2017-12-13T13:33:06.605Z,89.10
2017-12-13T13:35:33.345Z,89.50
2017-12-13T13:38:00.007Z,90.60
2017-12-13T13:40:26.741Z,90.50
2017-12-13T13:42:53.420Z,90.30
2017-12-13T13:45:20.137Z,90.50
2017-12-13T13:47:47.612Z,90.30
2017-12-13T13:50:15.216Z,91.30
2017-12-13T13:52:41.850Z,91.30
2017-12-13T13:55:08.515Z,92.60
2017-12-13T13:57:35.203Z,93.20
2017-12-13T14:00:02.705Z,94.50
2017-12-13T14:02:29.376Z,94.50
2017-12-13T14:04:56.050Z,95.40
2017-12-13T14:07:23.472Z,95.30
2017-12-13T14:09:50.120Z,95.30
2017-12-13T14:12:16.789Z,95.60
2017-12-13T14:14:44.172Z,96.20
2017-12-13T14:17:10.836Z,96.20
2017-12-13T14:19:37.573Z,96.20
2017-12-13T14:22:04.266Z,96.40
2017-12-13T14:24:30.962Z,96.40
2017-12-13T14:26:57.633Z,96.40
2017-12-13T14:29:24.294Z,96.70
2017-12-13T14:31:50.958Z,97.30
2017-12-13T14:34:18.384Z,97.50
2017-12-13T14:36:45.058Z,97.50
2017-12-13T14:39:12.439Z,98.00
2017-12-13T14:41:39.138Z,98.00
2017-12-13T14:44:05.849Z,98.20
2017-12-13T14:46:32.498Z,98.70
2017-12-13T14:48:59.190Z,98.50
2017-12-13T14:51:26.618Z,98.60
2017-12-13T14:53:53.282Z,98.50
2017-12-13T14:56:19.909Z,98.80
2017-12-13T14:58:46.620Z,99.30
2017-12-13T15:01:13.248Z,99.60
2017-12-13T15:03:39.922Z,99.80
2017-12-13T15:06:06.609Z,99.90
2017-12-13T15:08:34.001Z,99.90
2017-12-13T15:11:00.679Z,99.90
2017-12-13T15:13:27.350Z,99.90
2017-12-13T15:15:54.757Z,99.90
2017-12-13T15:18:21.416Z,99.90
2017-12-13T15:20:48.078Z,99.90
2017-12-13T15:23:14.793Z,99.90
2017-12-13T15:25:41.444Z,99.90
2017-12-13T15:28:08.149Z,99.90
2017-12-13T15:30:34.846Z,99.90
2017-12-13T15:33:01.540Z,99.90
2017-12-13T15:35:28.229Z,99.90
2017-12-13T15:37:54.895Z,99.90
2017-12-13T15:40:22.286Z,99.90
2017-12-13T15:42:48.952Z,99.90
2017-12-13T15:45:15.611Z,99.90
2017-12-13T15:47:42.351Z,99.90
2017-12-13T15:50:09.011Z,99.90
2017-12-13T15:52:35.758Z,99.90
2017-12-13T15:55:02.434Z,99.90
2017-12-13T15:57:29.456Z,99.90
2017-12-13T15:59:56.141Z,99.90
2017-12-13T16:02:22.794Z,99.90
2017-12-13T16:04:49.499Z,99.90
2017-12-13T16:07:16.915Z,99.90
2017-12-13T16:09:43.559Z,99.90
2017-12-13T16:12:10.223Z,99.90
2017-12-13T16:14:36.889Z,99.90
2017-12-13T16:17:04.291Z,99.90
2017-12-13T16:19:31.711Z,99.90
2017-12-13T16:21:59.124Z,99.90
2017-12-13T16:24:25.794Z,99.90
2017-12-13T16:26:52.438Z,99.90
2017-12-13T16:29:19.321Z,99.90
2017-12-13T16:31:46.006Z,99.90
2017-12-13T16:34:12.633Z,99.90
2017-12-13T16:36:39.371Z,99.90
2017-12-13T16:39:06.064Z,99.90
2017-12-13T16:41:33.468Z,99.90
2017-12-13T16:44:00.145Z,99.90
2017-12-13T16:46:26.851Z,99.90
2017-12-13T16:48:53.514Z,99.90
2017-12-13T16:51:20.220Z,99.90
2017-12-13T16:53:46.987Z,99.90
2017-12-13T16:56:13.682Z,99.90
2017-12-13T16:58:41.205Z,99.90
2017-12-13T17:01:07.909Z,99.90
2017-12-13T17:03:34.617Z,99.90
2017-12-13T17:06:01.438Z,99.90
2017-12-13T17:08:28.152Z,99.90
2017-12-13T17:10:54.901Z,99.90
2017-12-13T17:13:21.611Z,99.90
2017-12-13T17:15:49.112Z,99.90
2017-12-13T17:18:15.837Z,99.90
2017-12-13T17:20:42.547Z,99.90
2017-12-13T17:23:09.234Z,99.90
2017-12-13T17:25:35.918Z,99.90
2017-12-13T17:28:02.628Z,99.90
2017-12-13T17:30:29.281Z,99.90
2017-12-13T17:32:55.967Z,99.90
2017-12-13T17:35:22.727Z,99.90
2017-12-13T17:37:50.133Z,99.90
2017-12-13T17:40:16.838Z,99.90
2017-12-13T17:42:43.543Z,99.90
2017-12-13T17:45:10.241Z,99.90
2017-12-13T17:47:36.918Z,99.90
2017-12-13T17:50:03.630Z,99.90
2017-12-13T17:52:30.300Z,99.90
2017-12-13T17:54:57.003Z,99.90
2017-12-13T17:57:23.694Z,99.90
2017-12-13T17:59:50.388Z,99.90
2017-12-13T18:02:17.085Z,99.90
2017-12-13T18:04:43.783Z,99.90
2017-12-13T18:07:10.490Z,99.90
2017-12-13T18:09:37.213Z,99.90
2017-12-13T18:12:03.911Z,99.90
2017-12-13T18:14:30.606Z,99.90
2017-12-13T18:16:57.331Z,99.90
2017-12-13T18:19:24.020Z,99.90
2017-12-13T18:21:51.420Z,99.90
2017-12-13T18:24:18.143Z,99.90
2017-12-13T18:26:44.843Z,99.90
2017-12-13T18:29:11.614Z,99.90
2017-12-13T18:31:39.034Z,99.90
2017-12-13T18:34:05.705Z,99.90
2017-12-13T18:36:32.397Z,99.90
2017-12-13T18:38:59.129Z,99.90
2017-12-13T18:41:25.827Z,99.90
2017-12-13T18:43:52.527Z,99.90
2017-12-13T18:46:19.319Z,99.90
2017-12-13T18:48:46.017Z,99.90
2017-12-13T18:51:12.687Z,99.90
2017-12-13T18:53:39.365Z,99.90
2017-12-13T18:56:06.798Z,99.90
2017-12-13T18:58:34.387Z,99.90
2017-12-13T19:01:01.913Z,99.90
2017-12-13T19:03:28.670Z,99.90
2017-12-13T19:05:55.349Z,99.90
2017-12-13T19:08:22.774Z,99.90
2017-12-13T19:10:49.449Z,99.90
2017-12-13T19:13:16.867Z,99.90
2017-12-13T19:15:43.625Z,99.90
2017-12-13T19:18:10.338Z,99.90
2017-12-13T19:20:37.012Z,99.90
2017-12-13T19:23:03.762Z,99.90
2017-12-13T19:25:30.416Z,99.90
2017-12-13T19:27:57.852Z,99.90
2017-12-13T19:30:24.673Z,99.90
2017-12-13T19:32:51.368Z,99.90
2017-12-13T19:35:18.785Z,99.90
2017-12-13T19:37:45.442Z,99.90
2017-12-13T19:40:12.172Z,99.90
2017-12-13T19:42:38.810Z,99.90
2017-12-13T19:45:05.502Z,99.90
2017-12-13T19:47:32.880Z,99.90
2017-12-13T19:49:59.542Z,99.90
2017-12-13T19:52:26.367Z,99.90
2017-12-13T19:54:53.022Z,99.90
2017-12-13T19:57:19.674Z,99.90
2017-12-13T19:59:46.334Z,99.90
2017-12-13T20:02:13.006Z,99.90
2017-12-13T20:04:39.663Z,99.90
2017-12-13T20:07:07.076Z,99.90
2017-12-13T20:09:33.805Z,99.90
2017-12-13T20:12:00.543Z,99.90
2017-12-13T20:14:27.208Z,99.90
2017-12-13T20:16:53.918Z,99.90
2017-12-13T20:19:20.569Z,99.90
2017-12-13T20:21:47.249Z,99.90
2017-12-13T20:24:13.960Z,99.90
2017-12-13T20:26:40.633Z,99.90
2017-12-13T20:29:08.017Z,99.90
2017-12-13T20:31:35.465Z,99.90
2017-12-13T20:34:02.100Z,99.90
2017-12-13T20:36:28.753Z,99.90
2017-12-13T20:38:55.477Z,99.90
2017-12-13T20:41:22.112Z,99.90
2017-12-13T20:43:48.778Z,99.90
2017-12-13T20:46:16.610Z,99.90
2017-12-13T20:48:44.252Z,99.90
2017-12-13T20:51:10.985Z,99.90
2017-12-13T20:53:37.691Z,99.90
2017-12-13T20:56:04.390Z,99.90
2017-12-13T20:58:31.083Z,99.90
2017-12-13T21:00:57.762Z,99.90
2017-12-13T21:03:24.467Z,99.90
2017-12-13T21:05:51.118Z,99.90
2017-12-13T21:08:17.819Z,99.90
2017-12-13T21:10:44.521Z,99.90
2017-12-13T21:13:11.894Z,99.90
2017-12-13T21:15:38.590Z,99.90
2017-12-13T21:18:05.251Z,99.90
2017-12-13T21:20:31.974Z,99.90
2017-12-13T21:22:58.699Z,99.90
2017-12-13T21:25:25.427Z,99.90
2017-12-13T21:27:52.067Z,99.90
2017-12-13T21:30:18.751Z,99.90
2017-12-13T21:32:45.390Z,99.90
2017-12-13T21:35:12.032Z,99.90
2017-12-13T21:37:38.698Z,99.90
2017-12-13T21:40:05.362Z,99.90
2017-12-13T21:42:32.066Z,99.90
2017-12-13T21:44:58.769Z,99.90
2017-12-13T21:47:25.464Z,99.90
2017-12-13T21:49:52.190Z,99.90
2017-12-13T21:52:19.019Z,99.90
2017-12-13T21:54:45.697Z,99.90
2017-12-13T21:57:12.377Z,99.90
2017-12-13T21:59:39.093Z,99.90
2017-12-13T22:02:06.519Z,99.90
2017-12-13T22:04:33.225Z,99.90
2017-12-13T22:06:59.901Z,99.90
2017-12-13T22:09:26.554Z,99.90
2017-12-13T22:11:53.238Z,99.90
2017-12-13T22:14:20.662Z,99.90
2017-12-13T22:16:47.347Z,99.90
2017-12-13T22:19:14.761Z,99.90
2017-12-13T22:21:41.453Z,99.90
2017-12-13T22:24:08.946Z,99.90
2017-12-13T22:26:35.622Z,99.90
2017-12-13T22:29:02.300Z,99.90
2017-12-13T22:31:29.061Z,99.90
2017-12-13T22:33:55.863Z,99.90
2017-12-13T22:36:23.357Z,99.90
2017-12-13T22:38:50.077Z,99.90
2017-12-13T22:41:17.514Z,99.90
2017-12-13T22:43:44.235Z,99.90
2017-12-13T22:46:10.906Z,99.90
2017-12-13T22:48:37.578Z,99.90
2017-12-13T22:51:05.082Z,99.90
2017-12-13T22:53:31.758Z,99.90
2017-12-13T22:55:58.422Z,99.90
2017-12-13T22:58:25.840Z,99.90
2017-12-13T23:00:52.534Z,99.90
2017-12-13T23:03:19.985Z,99.90
2017-12-13T23:05:47.389Z,99.90
2017-12-13T23:08:14.081Z,99.90
2017-12-13T23:10:41.615Z,99.90
2017-12-13T23:13:08.271Z,99.90
2017-12-13T23:15:35.023Z,99.90
2017-12-13T23:18:01.703Z,99.90
2017-12-13T23:20:28.375Z,99.90
2017-12-13T23:22:55.048Z,99.90
2017-12-13T23:25:21.759Z,99.90
2017-12-13T23:27:48.425Z,99.90
2017-12-13T23:30:15.108Z,99.90
2017-12-13T23:32:42.485Z,99.90
2017-12-13T23:35:09.114Z,99.90
2017-12-13T23:37:36.527Z,99.90
2017-12-13T23:40:03.236Z,99.90
2017-12-13T23:42:29.894Z,99.90
2017-12-13T23:44:57.459Z,99.90
2017-12-13T23:47:24.096Z,99.90
2017-12-13T23:49:50.743Z,99.90
2017-12-13T23:52:17.389Z,99.90
2017-12-13T23:54:44.020Z,99.90
2017-12-13T23:57:10.659Z,99.90
2017-12-13T23:59:38.300Z,99.90
